Kurdo, Arkansas
Current Conditions -  °F | °C
As of 9:35 AM on Thursday 23 Oct 2014 (Local Time) from KRNV Reporting Station
Clear Clear  
Wind Chill: 53°   Ceiling: Unl
Heat Index: 53°   Visibility: 10mi
Dew Point: 49°   Wind: 3mph
Humidity: 85%   Direction: 90°E
Pressure: 30.2"   Gusts: NA
Location:  33.8911°N, 91.2569°W
Report Text: KRNV 231435Z AUTO 09003KT 10SM CLR 12/09 A3020 RMK AO2 T01170093
Loading
Personal Weather Stations






























Interactive Weather Map
Tropical Storm Tracking
New forecast layout! Learn more

10-Day Weather Forecast

Advertisements
Track Severe Weather on mobile